Time;durP1;ratioP1;P1;durP2;ratioP2;P2;SDS_P1;SDS_P2;PMS_P1;PMS_P2;Temp;Humidity;BMP_temperature;BMP_pressure;BME280_temperature;BME280_humidity;BME280_pressure;Samples;Min_cycle;Max_cycle;Signal;HPM_P1;HPM_P2
2022/08/13 00:01:11;;;;;;;8.52;3.67;;;;;;;;;;4899594;29;20035;-80
2022/08/13 00:03:37;;;;;;;6.18;3.72;;;;;;;;;;4908719;29;20050;-82
2022/08/13 00:06:08;;;;;;;5.45;3.50;;;;;;;;;;4923243;29;20028;-80
2022/08/13 00:08:35;;;;;;;13.05;3.58;;;;;;;;;;4883980;29;20119;-82
2022/08/13 00:11:01;;;;;;;7.68;3.65;;;;;;;;;;4914142;29;21101;-82
2022/08/13 00:13:26;;;;;;;5.85;3.85;;;;;;;;;;4897326;29;20020;-81
2022/08/13 00:15:52;;;;;;;5.95;3.45;;;;;;;;;;4893286;29;20103;-81
2022/08/13 00:18:19;;;;;;;10.60;3.83;;;;;;;;;;4910297;29;20031;-81
2022/08/13 00:20:49;;;;;;;10.68;3.78;;;;;;;;;;4880356;29;20040;-80
2022/08/13 00:23:16;;;;;;;7.18;3.60;;;;;;;;;;4913952;29;20139;-81
2022/08/13 00:25:46;;;;;;;5.30;3.88;;;;;;;;;;4921694;29;20038;-82
2022/08/13 00:28:14;;;;;;;7.60;4.35;;;;;;;;;;4905474;29;20024;-81
2022/08/13 00:30:39;;;;;;;8.18;3.25;;;;;;;;;;4913664;29;20161;-81
2022/08/13 00:33:08;;;;;;;9.13;3.70;;;;;;;;;;4895257;29;20115;-82
2022/08/13 00:35:36;;;;;;;12.90;3.97;;;;;;;;;;4923234;29;20111;-82
2022/08/13 00:38:05;;;;;;;7.07;3.58;;;;;;;;;;4881438;29;20083;-82
2022/08/13 00:40:30;;;;;;;7.20;3.65;;;;;;;;;;4880909;29;20071;-79
2022/08/13 00:43:03;;;;;;;7.60;3.75;;;;;;;;;;4896430;29;20071;-81
2022/08/13 00:45:30;;;;;;;6.68;3.42;;;;;;;;;;4912563;29;20091;-82
2022/08/13 00:50:39;;;;;;;8.43;3.22;;;;;;;;;;4902938;29;20055;-80
2022/08/13 00:53:05;;;;;;;8.63;4.20;;;;;;;;;;4912981;29;20036;-81
2022/08/13 00:55:33;;;;;;;7.88;4.05;;;;;;;;;;4872029;29;20122;-82
2022/08/13 00:57:58;;;;;;;8.13;3.38;;;;;;;;;;4918652;29;20032;-82
2022/08/13 01:00:25;;;;;;;4.57;3.20;;;;;;;;;;4934753;29;20094;-82
2022/08/13 01:02:52;;;;;;;9.25;3.90;;;;;;;;;;4916267;29;20061;-81
2022/08/13 01:05:19;;;;;;;8.35;3.83;;;;;;;;;;4917250;29;20031;-82
2022/08/13 01:07:45;;;;;;;5.60;3.78;;;;;;;;;;4919835;29;20028;-81
2022/08/13 01:10:11;;;;;;;6.53;3.67;;;;;;;;;;4934260;29;20038;-81
2022/08/13 01:12:37;;;;;;;14.02;4.32;;;;;;;;;;4934943;29;20486;-79
2022/08/13 01:15:04;;;;;;;10.07;4.30;;;;;;;;;;4934230;29;20054;-81
2022/08/13 01:17:29;;;;;;;6.00;4.30;;;;;;;;;;4918421;29;20039;-81
2022/08/13 01:19:56;;;;;;;4.68;3.30;;;;;;;;;;4918610;29;20052;-80
2022/08/13 01:22:23;;;;;;;7.05;3.83;;;;;;;;;;4944766;29;20054;-81
2022/08/13 01:24:50;;;;;;;7.00;3.88;;;;;;;;;;4902163;29;20040;-81
2022/08/13 01:27:18;;;;;;;10.77;3.65;;;;;;;;;;4931170;29;20457;-82
2022/08/13 01:29:46;;;;;;;10.98;3.85;;;;;;;;;;4931079;29;20495;-81
2022/08/13 01:32:15;;;;;;;5.85;4.10;;;;;;;;;;4917833;29;20118;-81
2022/08/13 01:34:42;;;;;;;8.15;3.80;;;;;;;;;;4903251;29;20078;-81
2022/08/13 01:37:07;;;;;;;10.23;4.05;;;;;;;;;;4917818;29;20031;-81
2022/08/13 01:39:32;;;;;;;7.95;3.88;;;;;;;;;;4906070;29;20471;-81
2022/08/13 01:41:58;;;;;;;8.88;4.35;;;;;;;;;;4932438;29;20083;-80
2022/08/13 01:44:25;;;;;;;6.80;4.57;;;;;;;;;;4934105;29;20110;-81
2022/08/13 01:52:30;;;;;;;9.00;4.00;;;;;;;;;;4916065;29;20564;-80
2022/08/13 01:54:55;;;;;;;8.48;4.35;;;;;;;;;;4891777;29;20059;-80
2022/08/13 01:57:21;;;;;;;8.15;4.68;;;;;;;;;;4885416;29;20173;-80
2022/08/13 01:59:46;;;;;;;5.35;3.42;;;;;;;;;;4910428;29;20075;-81
2022/08/13 02:02:12;;;;;;;7.88;4.28;;;;;;;;;;4906987;29;20020;-81
2022/08/13 02:04:38;;;;;;;10.57;4.20;;;;;;;;;;4882519;29;20390;-81
2022/08/13 02:07:06;;;;;;;11.38;4.03;;;;;;;;;;4924638;29;20043;-82
2022/08/13 02:09:32;;;;;;;9.02;4.20;;;;;;;;;;4912512;29;20051;-80
2022/08/13 02:11:57;;;;;;;5.45;3.85;;;;;;;;;;4912629;29;20020;-82
2022/08/13 02:14:23;;;;;;;10.20;4.13;;;;;;;;;;4942666;29;21012;-82
2022/08/13 02:16:48;;;;;;;6.03;3.65;;;;;;;;;;4895351;29;20126;-82
2022/08/13 02:19:14;;;;;;;13.73;4.28;;;;;;;;;;4895341;29;20039;-81
2022/08/13 02:21:44;;;;;;;5.80;3.55;;;;;;;;;;4894275;29;20122;-81
2022/08/13 02:24:13;;;;;;;9.25;4.05;;;;;;;;;;4926054;29;20020;-80
2022/08/13 02:26:40;;;;;;;8.90;4.68;;;;;;;;;;4929436;29;20416;-81
2022/08/13 02:29:08;;;;;;;11.13;4.03;;;;;;;;;;4883598;29;20033;-81
2022/08/13 02:31:34;;;;;;;6.53;4.03;;;;;;;;;;4893319;29;20489;-80
2022/08/13 02:33:59;;;;;;;9.02;4.57;;;;;;;;;;4913402;29;20102;-81
2022/08/13 02:36:25;;;;;;;7.60;4.10;;;;;;;;;;4920261;29;20442;-80
2022/08/13 02:38:58;;;;;;;6.43;4.55;;;;;;;;;;4896184;29;20126;-79
2022/08/13 02:41:40;;;;;;;10.32;5.00;;;;;;;;;;4909846;29;20063;-81
2022/08/13 02:44:06;;;;;;;7.93;4.47;;;;;;;;;;4928051;29;20617;-82
2022/08/13 02:46:32;;;;;;;6.65;4.30;;;;;;;;;;4880556;29;20024;-81
2022/08/13 02:48:58;;;;;;;14.68;5.28;;;;;;;;;;4891720;29;20056;-81
2022/08/13 02:51:25;;;;;;;21.25;4.85;;;;;;;;;;4911565;29;20111;-82
2022/08/13 02:53:52;;;;;;;19.67;4.53;;;;;;;;;;4898375;29;20063;-81
2022/08/13 02:56:20;;;;;;;19.63;5.57;;;;;;;;;;4908670;29;20032;-82
2022/08/13 02:58:46;;;;;;;21.38;5.03;;;;;;;;;;4925167;29;20036;-81
2022/08/13 03:01:13;;;;;;;11.70;5.03;;;;;;;;;;4923517;29;20051;-81
2022/08/13 03:03:39;;;;;;;17.75;5.38;;;;;;;;;;4912940;29;20059;-81
2022/08/13 03:06:05;;;;;;;10.65;5.00;;;;;;;;;;4925260;29;20030;-82
2022/08/13 03:08:30;;;;;;;10.18;5.13;;;;;;;;;;4926081;29;20035;-82
2022/08/13 03:10:56;;;;;;;11.30;4.85;;;;;;;;;;4876685;29;20150;-81
2022/08/13 03:13:22;;;;;;;5.95;4.80;;;;;;;;;;4908308;29;20024;-82
2022/08/13 03:15:50;;;;;;;8.73;4.63;;;;;;;;;;4939043;29;20040;-80
2022/08/13 03:18:15;;;;;;;10.13;4.85;;;;;;;;;;4896613;29;20028;-81
2022/08/13 03:20:41;;;;;;;8.15;5.20;;;;;;;;;;4908606;29;20133;-82
2022/08/13 03:23:07;;;;;;;5.78;4.13;;;;;;;;;;4913426;29;20034;-82
2022/08/13 03:25:33;;;;;;;13.38;4.10;;;;;;;;;;4928233;29;20070;-81
2022/08/13 03:27:58;;;;;;;6.88;4.50;;;;;;;;;;4897065;29;20031;-81
2022/08/13 03:30:24;;;;;;;6.63;4.75;;;;;;;;;;4911619;29;20102;-82
2022/08/13 03:32:50;;;;;;;8.60;4.30;;;;;;;;;;4895377;29;20126;-81
2022/08/13 03:35:16;;;;;;;7.47;4.82;;;;;;;;;;4924646;29;20051;-81
2022/08/13 03:37:43;;;;;;;9.32;5.00;;;;;;;;;;4942898;29;20418;-81
2022/08/13 03:40:10;;;;;;;7.03;5.10;;;;;;;;;;4882081;29;20066;-81
2022/08/13 03:42:35;;;;;;;10.23;4.68;;;;;;;;;;4893201;29;20044;-80
2022/08/13 03:45:03;;;;;;;10.43;4.63;;;;;;;;;;4894410;29;20114;-80
2022/08/13 03:47:30;;;;;;;11.98;5.00;;;;;;;;;;4898144;29;20045;-82
2022/08/13 03:49:57;;;;;;;10.85;4.40;;;;;;;;;;4934009;29;20048;-82
2022/08/13 03:52:23;;;;;;;7.25;4.65;;;;;;;;;;4904180;29;20385;-82
2022/08/13 03:54:49;;;;;;;7.50;4.22;;;;;;;;;;4896550;29;20055;-81
2022/08/13 03:57:18;;;;;;;9.23;5.05;;;;;;;;;;4927073;29;20032;-82
2022/08/13 03:59:45;;;;;;;10.50;5.25;;;;;;;;;;4928020;29;20026;-81
2022/08/13 04:02:12;;;;;;;7.10;5.15;;;;;;;;;;4881016;29;20074;-81
2022/08/13 04:04:37;;;;;;;7.18;4.93;;;;;;;;;;4911854;29;20039;-82
2022/08/13 04:07:04;;;;;;;5.30;4.30;;;;;;;;;;4878368;29;20501;-82
2022/08/13 04:09:30;;;;;;;10.98;4.90;;;;;;;;;;4910505;29;20027;-80
2022/08/13 04:11:55;;;;;;;7.03;4.50;;;;;;;;;;4910796;29;20051;-81
2022/08/13 04:14:20;;;;;;;9.70;5.07;;;;;;;;;;4908553;29;20425;-82
2022/08/13 04:16:46;;;;;;;8.18;4.50;;;;;;;;;;4913884;29;20070;-81
2022/08/13 04:19:11;;;;;;;13.38;5.50;;;;;;;;;;4916231;29;20072;-80
2022/08/13 04:21:37;;;;;;;7.63;4.80;;;;;;;;;;4916283;29;20039;-81
2022/08/13 04:24:03;;;;;;;13.15;5.20;;;;;;;;;;4930557;29;20054;-82
2022/08/13 04:26:30;;;;;;;10.68;4.68;;;;;;;;;;4945378;29;20040;-80
2022/08/13 04:28:57;;;;;;;10.02;5.13;;;;;;;;;;4905079;29;20027;-81
2022/08/13 04:31:22;;;;;;;7.65;5.55;;;;;;;;;;4874117;29;20536;-80
2022/08/13 04:33:48;;;;;;;11.65;5.28;;;;;;;;;;4929865;29;20148;-81
2022/08/13 04:36:13;;;;;;;7.97;4.80;;;;;;;;;;4910466;29;20488;-81
2022/08/13 04:38:39;;;;;;;8.82;5.70;;;;;;;;;;4911677;29;20115;-81
2022/08/13 04:41:04;;;;;;;5.93;4.53;;;;;;;;;;4914994;29;20084;-81
2022/08/13 04:43:29;;;;;;;7.97;5.30;;;;;;;;;;4897947;29;20559;-80
2022/08/13 04:45:58;;;;;;;9.95;5.65;;;;;;;;;;4913989;29;20130;-81
2022/08/13 04:48:24;;;;;;;7.43;5.25;;;;;;;;;;4903014;29;20036;-81
2022/08/13 04:50:49;;;;;;;8.95;5.82;;;;;;;;;;4879549;29;20488;-81
2022/08/13 04:53:32;;;;;;;5.80;4.75;;;;;;;;;;4913236;29;20118;-80
2022/08/13 04:55:59;;;;;;;7.78;5.57;;;;;;;;;;4927809;29;20032;-80
2022/08/13 04:58:29;;;;;;;9.45;5.07;;;;;;;;;;4899743;29;20047;-81
2022/08/13 05:00:56;;;;;;;7.18;5.38;;;;;;;;;;4940792;29;20032;-81
2022/08/13 05:03:22;;;;;;;8.70;5.20;;;;;;;;;;4909600;29;20335;-82
2022/08/13 05:05:49;;;;;;;7.63;4.78;;;;;;;;;;4883244;29;20128;-80
2022/08/13 05:08:17;;;;;;;6.63;4.88;;;;;;;;;;4933564;29;20019;-81
2022/08/13 05:10:44;;;;;;;6.40;4.70;;;;;;;;;;4934387;29;20032;-81
2022/08/13 05:13:20;;;;;;;5.65;4.32;;;;;;;;;;4934456;29;20387;-82
2022/08/13 05:15:45;;;;;;;7.72;4.32;;;;;;;;;;4934486;29;20407;-77
2022/08/13 05:18:11;;;;;;;7.85;4.78;;;;;;;;;;4930797;29;20099;-77
2022/08/13 05:20:36;;;;;;;7.88;4.78;;;;;;;;;;4938126;29;20119;-77
2022/08/13 05:23:08;;;;;;;12.20;4.90;;;;;;;;;;4913477;29;20074;-78
2022/08/13 05:25:34;;;;;;;8.95;4.80;;;;;;;;;;4893979;29;20036;-78
2022/08/13 05:27:59;;;;;;;6.75;4.45;;;;;;;;;;4911684;29;20112;-84
2022/08/13 05:30:27;;;;;;;11.73;5.00;;;;;;;;;;4912325;29;20046;-78
2022/08/13 05:32:57;;;;;;;9.13;4.93;;;;;;;;;;4893388;29;20507;-78
2022/08/13 05:35:23;;;;;;;7.93;4.40;;;;;;;;;;4893734;29;20463;-79
2022/08/13 05:37:49;;;;;;;7.50;4.38;;;;;;;;;;4882592;29;20055;-77
2022/08/13 05:40:14;;;;;;;9.02;5.15;;;;;;;;;;4900357;29;20058;-77
2022/08/13 05:42:39;;;;;;;9.55;3.80;;;;;;;;;;4932604;29;20054;-78
2022/08/13 05:45:08;;;;;;;7.75;4.25;;;;;;;;;;4944244;28;20386;-77
2022/08/13 05:47:37;;;;;;;7.88;4.60;;;;;;;;;;4897362;29;20054;-78
2022/08/13 05:50:08;;;;;;;11.45;4.60;;;;;;;;;;4927904;29;20388;-78
2022/08/13 05:52:34;;;;;;;6.63;4.20;;;;;;;;;;4897450;29;20036;-77
2022/08/13 05:54:59;;;;;;;8.30;3.92;;;;;;;;;;4912429;29;20032;-79
2022/08/13 05:57:25;;;;;;;6.05;4.47;;;;;;;;;;4932588;29;20424;-78
2022/08/13 06:05:18;;;;;;;6.43;3.80;;;;;;;;;;4931746;29;20038;-78
2022/08/13 06:07:44;;;;;;;5.95;3.85;;;;;;;;;;4913061;29;20412;-78
2022/08/13 06:10:09;;;;;;;8.57;3.97;;;;;;;;;;4937944;28;20526;-77
2022/08/13 06:12:36;;;;;;;6.88;3.83;;;;;;;;;;4927937;29;20833;-81
2022/08/13 06:15:02;;;;;;;6.60;4.07;;;;;;;;;;4931566;29;20063;-81
2022/08/13 06:17:27;;;;;;;8.15;4.20;;;;;;;;;;4916304;29;20067;-82
2022/08/13 06:19:53;;;;;;;5.90;3.80;;;;;;;;;;4914313;29;20106;-81
2022/08/13 06:22:19;;;;;;;11.27;3.20;;;;;;;;;;4901130;29;20066;-81
2022/08/13 06:24:45;;;;;;;9.07;4.03;;;;;;;;;;4932527;29;20537;-80
2022/08/13 06:27:11;;;;;;;6.65;3.45;;;;;;;;;;4916781;29;20399;-82
2022/08/13 06:29:37;;;;;;;6.38;3.17;;;;;;;;;;4948142;29;20023;-82
2022/08/13 06:32:03;;;;;;;6.18;3.08;;;;;;;;;;4928007;29;20039;-83
2022/08/13 06:34:31;;;;;;;8.30;2.00;;;;;;;;;;4925565;29;20020;-82
2022/08/13 06:36:58;;;;;;;11.40;2.55;;;;;;;;;;4901618;29;20039;-82
2022/08/13 06:39:24;;;;;;;8.90;2.88;;;;;;;;;;4919248;28;20063;-82
2022/08/13 06:41:49;;;;;;;4.15;2.60;;;;;;;;;;4951741;28;20474;-82
2022/08/13 06:44:14;;;;;;;3.95;2.10;;;;;;;;;;4951701;29;20035;-81
2022/08/13 06:46:40;;;;;;;7.60;2.90;;;;;;;;;;4932464;29;21426;-81
2022/08/13 06:49:05;;;;;;;4.18;2.17;;;;;;;;;;4882281;29;20150;-81
2022/08/13 06:51:31;;;;;;;6.55;2.53;;;;;;;;;;4943424;28;20110;-83
2022/08/13 06:53:56;;;;;;;8.07;1.98;;;;;;;;;;4929341;29;20121;-84
2022/08/13 06:56:26;;;;;;;5.57;1.95;;;;;;;;;;4917241;29;20097;-84
2022/08/13 06:58:53;;;;;;;6.50;2.35;;;;;;;;;;4901594;29;20423;-85
2022/08/13 07:01:22;;;;;;;7.85;1.75;;;;;;;;;;4901000;29;20083;-84
2022/08/13 07:03:47;;;;;;;8.23;2.40;;;;;;;;;;4916914;29;20027;-84
2022/08/13 07:06:26;;;;;;;4.22;2.03;;;;;;;;;;4916666;29;20078;-84
2022/08/13 07:08:56;;;;;;;6.60;1.90;;;;;;;;;;4900737;29;20027;-84
2022/08/13 07:11:27;;;;;;;4.53;1.65;;;;;;;;;;4918271;29;20024;-84
2022/08/13 07:13:54;;;;;;;4.28;1.95;;;;;;;;;;4916096;29;20031;-84
2022/08/13 07:16:22;;;;;;;10.32;2.13;;;;;;;;;;4900017;29;20102;-85
2022/08/13 07:18:49;;;;;;;5.35;1.77;;;;;;;;;;4915098;29;20084;-84
2022/08/13 07:21:17;;;;;;;4.57;1.88;;;;;;;;;;4915433;29;20380;-85
2022/08/13 07:23:43;;;;;;;9.05;1.40;;;;;;;;;;4915262;29;20034;-84
2022/08/13 07:26:16;;;;;;;6.13;2.00;;;;;;;;;;4899424;29;20473;-85
2022/08/13 07:28:42;;;;;;;8.57;2.15;;;;;;;;;;4914068;29;20377;-85
2022/08/13 07:31:08;;;;;;;5.80;1.80;;;;;;;;;;4915406;29;20047;-84
2022/08/13 07:33:34;;;;;;;14.10;1.70;;;;;;;;;;4915992;29;20433;-85
2022/08/13 07:36:08;;;;;;;4.88;1.30;;;;;;;;;;4914580;29;20476;-84
2022/08/13 07:38:34;;;;;;;4.55;1.45;;;;;;;;;;4915672;29;20047;-85
2022/08/13 07:41:00;;;;;;;3.65;1.23;;;;;;;;;;4930929;29;20509;-85
2022/08/13 07:43:26;;;;;;;3.22;1.17;;;;;;;;;;4915385;29;20051;-85
2022/08/13 07:46:05;;;;;;;6.90;1.48;;;;;;;;;;4899491;29;20032;-84
2022/08/13 07:48:31;;;;;;;5.50;1.27;;;;;;;;;;4900798;29;20376;-85
2022/08/13 07:50:58;;;;;;;6.53;1.10;;;;;;;;;;4930318;29;20031;-85
2022/08/13 07:53:24;;;;;;;3.35;1.40;;;;;;;;;;4899555;29;20036;-83
2022/08/13 07:55:49;;;;;;;5.03;1.63;;;;;;;;;;4933017;29;20047;-83
2022/08/13 07:58:15;;;;;;;4.50;1.42;;;;;;;;;;4916209;29;20122;-85
2022/08/13 08:00:41;;;;;;;7.15;1.73;;;;;;;;;;4885235;29;20082;-85
2022/08/13 08:03:06;;;;;;;7.15;1.67;;;;;;;;;;4900047;29;20618;-84
2022/08/13 08:05:33;;;;;;;4.05;1.40;;;;;;;;;;4930924;29;20031;-85
2022/08/13 08:08:00;;;;;;;4.05;1.55;;;;;;;;;;4914776;29;20122;-85
2022/08/13 08:10:25;;;;;;;8.80;1.30;;;;;;;;;;4899982;29;20404;-85
2022/08/13 08:12:50;;;;;;;3.70;1.65;;;;;;;;;;4898435;29;20050;-85
2022/08/13 08:15:16;;;;;;;5.35;1.10;;;;;;;;;;4884080;29;20051;-84
2022/08/13 08:17:42;;;;;;;4.82;1.35;;;;;;;;;;4899018;29;20396;-84
2022/08/13 08:20:09;;;;;;;5.95;1.38;;;;;;;;;;4899589;29;20028;-84
2022/08/13 08:22:35;;;;;;;7.88;1.00;;;;;;;;;;4915084;29;20210;-84
2022/08/13 08:25:01;;;;;;;5.78;1.02;;;;;;;;;;4898666;29;20106;-84
2022/08/13 08:27:26;;;;;;;10.80;1.50;;;;;;;;;;4915033;29;20039;-85
2022/08/13 08:29:52;;;;;;;5.93;0.90;;;;;;;;;;4931666;29;20370;-85
2022/08/13 08:32:18;;;;;;;5.55;1.10;;;;;;;;;;4914260;29;20031;-84
2022/08/13 08:34:46;;;;;;;6.95;1.23;;;;;;;;;;4899590;29;20114;-84
2022/08/13 08:42:53;;;;;;;14.68;1.38;;;;;;;;;;4915064;29;20043;-84
2022/08/13 08:45:20;;;;;;;3.08;1.20;;;;;;;;;;4930804;29;20032;-84
2022/08/13 08:47:47;;;;;;;2.28;1.08;;;;;;;;;;4914866;29;20123;-84
2022/08/13 08:50:13;;;;;;;2.85;1.25;;;;;;;;;;4915245;29;20035;-85
2022/08/13 08:55:24;;;;;;;4.40;1.20;;;;;;;;;;4944404;29;20544;-85
2022/08/13 08:57:51;;;;;;;3.45;1.30;;;;;;;;;;4929671;29;20035;-84
2022/08/13 09:00:18;;;;;;;4.85;1.58;;;;;;;;;;4930439;29;20059;-84
2022/08/13 09:02:46;;;;;;;6.57;1.35;;;;;;;;;;4930668;29;20035;-85
2022/08/13 09:05:13;;;;;;;4.05;1.23;;;;;;;;;;4917992;29;20066;-85
2022/08/13 09:07:40;;;;;;;3.97;1.30;;;;;;;;;;4933911;29;20039;-83
2022/08/13 09:10:05;;;;;;;6.60;1.15;;;;;;;;;;4933712;29;20218;-84
2022/08/13 09:12:31;;;;;;;3.30;1.45;;;;;;;;;;4933730;29;20020;-85
2022/08/13 09:14:57;;;;;;;5.50;1.20;;;;;;;;;;4933166;29;20483;-85
2022/08/13 09:17:22;;;;;;;10.43;1.65;;;;;;;;;;4936467;29;20027;-85
2022/08/13 09:19:47;;;;;;;5.40;1.20;;;;;;;;;;4902344;29;20509;-84
2022/08/13 09:22:17;;;;;;;6.93;1.63;;;;;;;;;;4932654;29;20057;-84
2022/08/13 09:24:46;;;;;;;5.55;1.08;;;;;;;;;;4934417;29;20034;-84
2022/08/13 09:27:13;;;;;;;4.20;1.00;;;;;;;;;;4934288;29;20070;-84
2022/08/13 09:29:38;;;;;;;6.65;1.40;;;;;;;;;;4916442;29;20059;-84
2022/08/13 09:32:05;;;;;;;2.30;1.10;;;;;;;;;;4917083;29;20058;-83
2022/08/13 09:34:30;;;;;;;8.00;1.23;;;;;;;;;;4933907;29;20086;-85
2022/08/13 09:36:56;;;;;;;6.90;1.10;;;;;;;;;;4916171;29;20055;-86
2022/08/13 09:39:28;;;;;;;6.88;1.40;;;;;;;;;;4932324;29;20031;-83
2022/08/13 09:41:54;;;;;;;2.53;1.00;;;;;;;;;;4938409;29;20508;-83
2022/08/13 09:44:19;;;;;;;4.60;1.27;;;;;;;;;;4901269;29;20070;-83
2022/08/13 09:46:45;;;;;;;4.90;1.40;;;;;;;;;;4901491;29;20032;-83
2022/08/13 09:49:11;;;;;;;2.53;1.27;;;;;;;;;;4930105;29;20163;-83
2022/08/13 09:51:36;;;;;;;3.45;1.10;;;;;;;;;;4899382;29;20067;-85
2022/08/13 09:54:03;;;;;;;4.75;1.38;;;;;;;;;;4898675;29;20099;-85
2022/08/13 09:56:30;;;;;;;6.20;1.40;;;;;;;;;;4884868;29;20336;-84
2022/08/13 09:58:55;;;;;;;5.88;1.00;;;;;;;;;;4911564;29;20023;-86
2022/08/13 10:01:20;;;;;;;3.60;1.13;;;;;;;;;;4919098;29;20560;-86
2022/08/13 10:03:48;;;;;;;2.63;1.10;;;;;;;;;;4929798;29;20050;-85
2022/08/13 10:06:16;;;;;;;4.80;1.20;;;;;;;;;;4904489;29;20042;-83
2022/08/13 10:08:41;;;;;;;4.10;1.52;;;;;;;;;;4889098;29;20083;-84
2022/08/13 10:11:06;;;;;;;6.20;1.30;;;;;;;;;;4883048;29;20170;-85
2022/08/13 10:13:32;;;;;;;5.03;1.20;;;;;;;;;;4929929;29;20066;-84
2022/08/13 10:15:58;;;;;;;2.58;1.17;;;;;;;;;;4935209;29;20031;-83
2022/08/13 10:18:28;;;;;;;4.88;1.42;;;;;;;;;;4932009;29;20028;-85
2022/08/13 10:20:54;;;;;;;3.60;1.00;;;;;;;;;;4900638;29;20036;-84
2022/08/13 10:23:19;;;;;;;2.55;1.25;;;;;;;;;;4931209;29;20388;-85
2022/08/13 10:25:46;;;;;;;2.80;1.10;;;;;;;;;;4900223;29;20047;-85
2022/08/13 10:28:26;;;;;;;2.42;1.15;;;;;;;;;;4941078;29;20041;-85
2022/08/13 10:30:54;;;;;;;5.05;1.83;;;;;;;;;;4947103;29;20031;-85
2022/08/13 10:33:23;;;;;;;5.70;1.27;;;;;;;;;;4924422;29;20038;-83
2022/08/13 10:35:55;;;;;;;7.20;1.20;;;;;;;;;;4929679;29;20032;-84
2022/08/13 10:38:25;;;;;;;6.15;1.38;;;;;;;;;;4931508;29;20172;-84
2022/08/13 10:40:50;;;;;;;6.90;1.50;;;;;;;;;;4915566;29;20106;-84
2022/08/13 10:43:16;;;;;;;5.25;1.25;;;;;;;;;;4879955;29;20031;-84
2022/08/13 10:45:42;;;;;;;4.40;1.35;;;;;;;;;;4931411;29;20090;-85
2022/08/13 10:48:13;;;;;;;6.35;1.30;;;;;;;;;;4938241;28;20391;-84
2022/08/13 10:50:39;;;;;;;1.85;1.10;;;;;;;;;;4928069;29;20035;-85
2022/08/13 10:53:05;;;;;;;2.70;0.93;;;;;;;;;;4940898;28;20456;-84
2022/08/13 10:55:30;;;;;;;4.47;1.00;;;;;;;;;;4896064;29;20041;-84
2022/08/13 10:57:56;;;;;;;4.03;1.30;;;;;;;;;;4925579;29;20035;-85
2022/08/13 11:00:21;;;;;;;7.07;1.35;;;;;;;;;;4936468;29;20126;-84
2022/08/13 11:02:50;;;;;;;5.13;1.33;;;;;;;;;;4904128;29;20130;-86
2022/08/13 11:05:22;;;;;;;2.38;1.27;;;;;;;;;;4893095;29;20024;-85
2022/08/13 11:07:48;;;;;;;2.67;1.13;;;;;;;;;;4892733;29;20046;-85
2022/08/13 11:10:13;;;;;;;5.80;1.30;;;;;;;;;;4912980;29;20023;-85
2022/08/13 11:12:42;;;;;;;1.65;0.90;;;;;;;;;;4898831;29;20114;-85
2022/08/13 11:15:08;;;;;;;5.88;1.33;;;;;;;;;;4892679;29;20042;-85
2022/08/13 11:17:34;;;;;;;11.10;1.25;;;;;;;;;;4930741;29;20039;-86
2022/08/13 11:20:04;;;;;;;5.75;1.27;;;;;;;;;;4934096;28;20032;-84
2022/08/13 11:22:30;;;;;;;5.35;1.20;;;;;;;;;;4896678;29;20027;-83
2022/08/13 11:24:56;;;;;;;4.50;1.35;;;;;;;;;;4933695;29;20030;-85
2022/08/13 11:27:21;;;;;;;1.50;0.90;;;;;;;;;;4934701;28;20076;-85
2022/08/13 11:29:46;;;;;;;3.08;0.93;;;;;;;;;;4910815;29;20036;-84
2022/08/13 11:32:12;;;;;;;2.30;0.85;;;;;;;;;;4913791;29;20130;-84
2022/08/13 11:34:37;;;;;;;2.92;1.00;;;;;;;;;;4900673;29;20062;-84
2022/08/13 11:37:03;;;;;;;3.78;1.20;;;;;;;;;;4914540;29;20043;-84
2022/08/13 11:39:28;;;;;;;1.98;1.10;;;;;;;;;;4944915;28;20031;-84
2022/08/13 11:41:53;;;;;;;5.97;1.35;;;;;;;;;;4914682;29;20530;-85
2022/08/13 11:44:19;;;;;;;6.38;1.25;;;;;;;;;;4906694;29;20039;-84
2022/08/13 11:46:44;;;;;;;3.28;1.20;;;;;;;;;;4933881;29;20115;-85
2022/08/13 11:49:13;;;;;;;7.60;1.10;;;;;;;;;;4903979;29;20360;-84
2022/08/13 11:51:38;;;;;;;2.45;1.23;;;;;;;;;;4896359;29;20403;-84
2022/08/13 11:54:03;;;;;;;3.47;1.10;;;;;;;;;;4940384;28;20027;-83
2022/08/13 11:56:29;;;;;;;5.85;1.17;;;;;;;;;;4927767;29;20027;-83
2022/08/13 11:58:55;;;;;;;4.00;1.17;;;;;;;;;;4899672;29;20043;-84
2022/08/13 12:01:21;;;;;;;4.40;1.00;;;;;;;;;;4901160;29;20482;-84
2022/08/13 12:03:52;;;;;;;3.67;1.08;;;;;;;;;;4901789;29;20122;-85
2022/08/13 12:06:17;;;;;;;3.33;0.95;;;;;;;;;;4914660;29;20032;-84
2022/08/13 12:08:43;;;;;;;3.13;0.70;;;;;;;;;;4914495;29;20051;-84
2022/08/13 12:11:08;;;;;;;3.97;1.10;;;;;;;;;;4898659;29;20100;-85
2022/08/13 12:13:33;;;;;;;1.85;1.00;;;;;;;;;;4928204;29;20241;-85
2022/08/13 12:15:59;;;;;;;4.55;1.20;;;;;;;;;;4900709;29;20212;-85
2022/08/13 12:18:24;;;;;;;4.03;1.10;;;;;;;;;;4929255;29;20102;-84
2022/08/13 12:20:49;;;;;;;2.90;1.00;;;;;;;;;;4899553;29;20072;-85
2022/08/13 12:23:15;;;;;;;2.55;1.13;;;;;;;;;;4931515;29;20473;-84
2022/08/13 12:25:40;;;;;;;3.53;1.30;;;;;;;;;;4909110;29;20043;-84
2022/08/13 12:28:16;;;;;;;2.33;1.20;;;;;;;;;;4889428;29;20032;-84
2022/08/13 12:30:42;;;;;;;2.63;0.80;;;;;;;;;;4914685;29;20114;-84
2022/08/13 12:33:07;;;;;;;4.07;1.10;;;;;;;;;;4886252;29;20424;-84
2022/08/13 12:35:33;;;;;;;5.03;1.10;;;;;;;;;;4925835;29;20087;-83
2022/08/13 12:37:59;;;;;;;4.75;1.67;;;;;;;;;;4913902;29;20024;-84
2022/08/13 12:40:24;;;;;;;6.28;1.27;;;;;;;;;;4917478;29;20066;-85
2022/08/13 12:42:49;;;;;;;5.20;1.30;;;;;;;;;;4905139;29;20503;-85
2022/08/13 12:45:16;;;;;;;1.92;1.17;;;;;;;;;;4938770;29;20495;-84
2022/08/13 12:47:44;;;;;;;2.83;1.20;;;;;;;;;;4911662;29;20039;-84
2022/08/13 12:50:09;;;;;;;2.65;0.98;;;;;;;;;;4917603;29;20079;-84
2022/08/13 12:52:34;;;;;;;2.70;1.02;;;;;;;;;;4903962;29;20031;-84
2022/08/13 12:55:00;;;;;;;3.22;1.10;;;;;;;;;;4910094;29;20067;-83
2022/08/13 12:57:25;;;;;;;3.47;1.15;;;;;;;;;;4916071;29;20428;-82
2022/08/13 12:59:51;;;;;;;4.32;1.38;;;;;;;;;;4901512;29;20111;-83
2022/08/13 13:02:17;;;;;;;3.85;1.30;;;;;;;;;;4919267;29;20071;-84
2022/08/13 13:04:43;;;;;;;3.55;1.00;;;;;;;;;;4904609;29;20443;-83
2022/08/13 13:07:08;;;;;;;1.67;0.90;;;;;;;;;;4901509;29;20119;-84
2022/08/13 13:09:34;;;;;;;2.15;1.20;;;;;;;;;;4938277;29;20023;-84
2022/08/13 13:11:59;;;;;;;4.70;1.20;;;;;;;;;;4890949;29;20111;-84
2022/08/13 13:14:25;;;;;;;3.97;1.30;;;;;;;;;;4917387;29;20441;-84
2022/08/13 13:16:50;;;;;;;7.00;1.33;;;;;;;;;;4906543;29;20115;-84
2022/08/13 13:19:15;;;;;;;5.28;1.40;;;;;;;;;;4878689;29;20034;-83
2022/08/13 13:21:41;;;;;;;3.42;1.30;;;;;;;;;;4915000;29;20040;-83
2022/08/13 13:24:07;;;;;;;3.10;1.10;;;;;;;;;;4911358;29;20558;-83
2022/08/13 13:26:33;;;;;;;3.03;1.42;;;;;;;;;;4880351;29;20074;-84
2022/08/13 13:28:58;;;;;;;2.17;1.05;;;;;;;;;;4900483;29;20039;-83
2022/08/13 13:31:24;;;;;;;4.05;1.35;;;;;;;;;;4914781;29;20035;-83
2022/08/13 13:33:49;;;;;;;6.57;1.45;;;;;;;;;;4914898;29;20055;-83
2022/08/13 13:36:15;;;;;;;2.17;1.10;;;;;;;;;;4912090;29;20063;-83
2022/08/13 13:38:41;;;;;;;7.70;1.42;;;;;;;;;;4907155;29;20043;-84
2022/08/13 13:41:07;;;;;;;5.28;1.20;;;;;;;;;;4896637;29;20483;-84
2022/08/13 13:43:33;;;;;;;2.90;1.27;;;;;;;;;;4910349;29;20032;-84
2022/08/13 13:45:58;;;;;;;9.00;1.40;;;;;;;;;;4896010;29;20032;-83
2022/08/13 13:48:28;;;;;;;5.57;1.30;;;;;;;;;;4910796;29;20166;-83
2022/08/13 13:50:57;;;;;;;5.07;1.38;;;;;;;;;;4894430;29;20103;-84
2022/08/13 13:53:26;;;;;;;6.50;1.27;;;;;;;;;;4878865;29;20027;-83
2022/08/13 13:55:52;;;;;;;3.30;1.33;;;;;;;;;;4887548;29;20024;-83
2022/08/13 13:58:19;;;;;;;5.00;1.30;;;;;;;;;;4874262;29;20107;-83
2022/08/13 14:00:45;;;;;;;4.00;1.15;;;;;;;;;;4877666;29;20035;-82
2022/08/13 14:03:10;;;;;;;3.28;1.40;;;;;;;;;;4873519;29;20046;-83
2022/08/13 14:05:39;;;;;;;3.33;1.40;;;;;;;;;;4895373;29;20392;-82
2022/08/13 14:08:04;;;;;;;2.17;1.30;;;;;;;;;;4906458;29;20035;-82
2022/08/13 14:10:30;;;;;;;5.00;1.50;;;;;;;;;;4888481;29;20037;-84
2022/08/13 14:12:55;;;;;;;6.80;1.50;;;;;;;;;;4870237;29;20031;-83
2022/08/13 14:15:21;;;;;;;4.45;1.70;;;;;;;;;;4880604;29;20035;-83
2022/08/13 14:17:48;;;;;;;4.80;1.20;;;;;;;;;;4896291;29;20067;-83
2022/08/13 14:20:14;;;;;;;3.50;1.30;;;;;;;;;;4892367;29;20388;-84
2022/08/13 14:22:40;;;;;;;3.55;1.38;;;;;;;;;;4913767;29;20052;-84
2022/08/13 14:25:13;;;;;;;3.40;1.38;;;;;;;;;;4883483;29;20100;-84
2022/08/13 14:27:38;;;;;;;5.00;1.67;;;;;;;;;;4914723;29;20048;-84
2022/08/13 14:30:05;;;;;;;7.60;1.60;;;;;;;;;;4897424;29;20059;-83
2022/08/13 14:32:32;;;;;;;4.43;1.60;;;;;;;;;;4914192;29;20032;-84
2022/08/13 14:35:02;;;;;;;3.60;1.20;;;;;;;;;;4879796;29;20034;-83
2022/08/13 14:37:27;;;;;;;4.55;2.00;;;;;;;;;;4893184;29;20040;-83
2022/08/13 14:39:53;;;;;;;2.80;1.38;;;;;;;;;;4887382;29;20613;-83
2022/08/13 14:42:32;;;;;;;5.00;1.77;;;;;;;;;;4937025;29;20050;-84
2022/08/13 14:47:51;;;;;;;4.57;1.40;;;;;;;;;;4935700;29;20035;-84
2022/08/13 14:50:16;;;;;;;4.93;1.50;;;;;;;;;;4926152;29;20026;-84
2022/08/13 14:52:42;;;;;;;4.00;1.50;;;;;;;;;;4913905;29;20028;-84
2022/08/13 14:55:08;;;;;;;5.07;1.40;;;;;;;;;;4879390;29;20086;-84
2022/08/13 14:57:33;;;;;;;4.45;1.25;;;;;;;;;;4909470;29;20032;-84
2022/08/13 15:00:00;;;;;;;3.95;1.98;;;;;;;;;;4882511;29;20316;-84
2022/08/13 15:02:25;;;;;;;4.15;1.40;;;;;;;;;;4910199;29;20078;-84